sensor_id;sensor_type;location;lat;lon;timestamp;pressure;altitude;pressure_sealevel;temperature;humidity
70240;BME280;57629;52.256;10.414;2022-09-09T00:00:46;100245.34;;;23.97;53.98
70240;BME280;57629;52.256;10.414;2022-09-09T00:01:53;100241.88;;;23.97;53.57
70240;BME280;57629;52.256;10.414;2022-09-09T00:03:00;100241.06;;;23.96;53.93
70240;BME280;57629;52.256;10.414;2022-09-09T00:04:08;100237.28;;;23.97;53.76
70240;BME280;57629;52.256;10.414;2022-09-09T00:05:18;100236.22;;;23.98;53.66
70240;BME280;57629;52.256;10.414;2022-09-09T00:06:28;100237.28;;;23.97;54.08
70240;BME280;57629;52.256;10.414;2022-09-09T00:07:40;100237.28;;;23.97;54.27
70240;BME280;57629;52.256;10.414;2022-09-09T00:08:48;100236.50;;;23.97;54.13
70240;BME280;57629;52.256;10.414;2022-09-09T00:09:59;100231.94;;;23.97;54.14
70240;BME280;57629;52.256;10.414;2022-09-09T00:11:03;100243.47;;;23.98;53.62
70240;BME280;57629;52.256;10.414;2022-09-09T00:12:10;100234.63;;;23.97;53.85
70240;BME280;57629;52.256;10.414;2022-09-09T00:13:16;100236.50;;;23.97;53.97
70240;BME280;57629;52.256;10.414;2022-09-09T00:14:25;100234.63;;;23.97;53.90
70240;BME280;57629;52.256;10.414;2022-09-09T00:15:32;100233.81;;;23.97;53.80
70240;BME280;57629;52.256;10.414;2022-09-09T00:16:37;100238.91;;;23.98;53.82
70240;BME280;57629;52.256;10.414;2022-09-09T00:17:46;100238.13;;;23.98;54.05
70240;BME280;57629;52.256;10.414;2022-09-09T00:18:56;100244.28;;;23.98;54.22
70240;BME280;57629;52.256;10.414;2022-09-09T00:20:03;100235.44;;;23.98;53.90
70240;BME280;57629;52.256;10.414;2022-09-09T00:21:13;100235.44;;;23.98;54.11
70240;BME280;57629;52.256;10.414;2022-09-09T00:22:17;100237.28;;;23.97;54.35
70240;BME280;57629;52.256;10.414;2022-09-09T00:23:24;100239.19;;;23.97;54.12
70240;BME280;57629;52.256;10.414;2022-09-09T00:24:29;100229.25;;;23.97;54.13
70240;BME280;57629;52.256;10.414;2022-09-09T00:25:37;100229.53;;;23.96;53.83
70240;BME280;57629;52.256;10.414;2022-09-09T00:26:42;100224.97;;;23.96;53.98
70240;BME280;57629;52.256;10.414;2022-09-09T00:27:47;100226.56;;;23.97;53.68
70240;BME280;57629;52.256;10.414;2022-09-09T00:28:50;100230.34;;;23.96;53.72
70240;BME280;57629;52.256;10.414;2022-09-09T00:29:55;100232.22;;;23.96;54.07
70240;BME280;57629;52.256;10.414;2022-09-09T00:30:59;100233.03;;;23.96;53.97
70240;BME280;57629;52.256;10.414;2022-09-09T00:32:11;100224.97;;;23.96;53.68
70240;BME280;57629;52.256;10.414;2022-09-09T00:33:13;100226.88;;;23.96;53.94
70240;BME280;57629;52.256;10.414;2022-09-09T00:34:19;100223.38;;;23.95;53.83
70240;BME280;57629;52.256;10.414;2022-09-09T00:35:24;100224.19;;;23.96;54.13
70240;BME280;57629;52.256;10.414;2022-09-09T00:36:27;100226.06;;;23.95;53.70
70240;BME280;57629;52.256;10.414;2022-09-09T00:37:30;100227.13;;;23.94;54.01
70240;BME280;57629;52.256;10.414;2022-09-09T00:38:34;100222.56;;;23.95;53.84
70240;BME280;57629;52.256;10.414;2022-09-09T00:39:38;100232.50;;;23.94;53.93
70240;BME280;57629;52.256;10.414;2022-09-09T00:40:45;100233.28;;;23.95;54.05
70240;BME280;57629;52.256;10.414;2022-09-09T00:41:59;100232.78;;;23.93;53.66
70240;BME280;57629;52.256;10.414;2022-09-09T00:43:27;100230.91;;;23.93;53.79
70240;BME280;57629;52.256;10.414;2022-09-09T00:44:31;100230.91;;;23.93;53.89
70240;BME280;57629;52.256;10.414;2022-09-09T00:45:51;100228.22;;;23.93;53.75
70240;BME280;57629;52.256;10.414;2022-09-09T00:47:17;100230.91;;;23.93;53.96
70240;BME280;57629;52.256;10.414;2022-09-09T00:48:22;100230.13;;;23.93;53.67
70240;BME280;57629;52.256;10.414;2022-09-09T00:49:38;100230.91;;;23.93;53.75
70240;BME280;57629;52.256;10.414;2022-09-09T00:50:50;100222.06;;;23.93;53.84
70240;BME280;57629;52.256;10.414;2022-09-09T00:52:01;100223.13;;;23.92;53.57
70240;BME280;57629;52.256;10.414;2022-09-09T00:53:21;100223.13;;;23.92;53.75
70240;BME280;57629;52.256;10.414;2022-09-09T00:54:38;100231.97;;;23.92;53.79
70240;BME280;57629;52.256;10.414;2022-09-09T00:55:46;100229.59;;;23.91;53.69
70240;BME280;57629;52.256;10.414;2022-09-09T00:56:58;100231.19;;;23.92;53.87
70240;BME280;57629;52.256;10.414;2022-09-09T00:58:00;100223.44;;;23.90;53.78
70240;BME280;57629;52.256;10.414;2022-09-09T00:59:05;100226.91;;;23.91;53.69
70240;BME280;57629;52.256;10.414;2022-09-09T01:00:21;100234.16;;;23.90;53.67
70240;BME280;57629;52.256;10.414;2022-09-09T01:01:22;100228.50;;;23.92;53.78
70240;BME280;57629;52.256;10.414;2022-09-09T01:02:28;100231.47;;;23.90;53.80
70240;BME280;57629;52.256;10.414;2022-09-09T01:03:34;100232.28;;;23.91;53.69
70240;BME280;57629;52.256;10.414;2022-09-09T01:04:36;100231.47;;;23.90;53.85
70240;BME280;57629;52.256;10.414;2022-09-09T01:05:43;100226.09;;;23.90;53.73
70240;BME280;57629;52.256;10.414;2022-09-09T01:06:46;100231.47;;;23.90;53.96
70240;BME280;57629;52.256;10.414;2022-09-09T01:07:50;100227.16;;;23.89;53.69
70240;BME280;57629;52.256;10.414;2022-09-09T01:09:08;100223.44;;;23.90;53.81
70240;BME280;57629;52.256;10.414;2022-09-09T01:10:17;100225.28;;;23.90;53.83
70240;BME280;57629;52.256;10.414;2022-09-09T01:11:25;100228.78;;;23.90;53.73
70240;BME280;57629;52.256;10.414;2022-09-09T01:12:35;100229.84;;;23.89;53.53
70240;BME280;57629;52.256;10.414;2022-09-09T01:13:41;100221.00;;;23.89;53.93
70240;BME280;57629;52.256;10.414;2022-09-09T01:14:47;100226.38;;;23.89;53.82
70240;BME280;57629;52.256;10.414;2022-09-09T01:15:48;100226.38;;;23.89;53.78
70240;BME280;57629;52.256;10.414;2022-09-09T01:16:51;100229.84;;;23.89;53.37
70240;BME280;57629;52.256;10.414;2022-09-09T01:18:00;100233.63;;;23.88;53.50
70240;BME280;57629;52.256;10.414;2022-09-09T01:19:02;100231.47;;;23.90;53.74
70240;BME280;57629;52.256;10.414;2022-09-09T01:20:10;100233.31;;;23.90;53.82
70240;BME280;57629;52.256;10.414;2022-09-09T01:21:22;100230.66;;;23.90;53.81
70240;BME280;57629;52.256;10.414;2022-09-09T01:22:34;100230.66;;;23.90;53.50
70240;BME280;57629;52.256;10.414;2022-09-09T01:23:48;100228.78;;;23.90;53.40
70240;BME280;57629;52.256;10.414;2022-09-09T01:25:19;100233.31;;;23.90;53.70
70240;BME280;57629;52.256;10.414;2022-09-09T01:26:30;100224.50;;;23.89;53.32
70240;BME280;57629;52.256;10.414;2022-09-09T01:27:33;100236.53;;;23.92;53.91
70240;BME280;57629;52.256;10.414;2022-09-09T01:28:36;100237.91;;;23.89;53.63
70240;BME280;57629;52.256;10.414;2022-09-09T01:29:37;100236.00;;;23.90;53.56
70240;BME280;57629;52.256;10.414;2022-09-09T01:30:39;100236.00;;;23.90;53.48
70240;BME280;57629;52.256;10.414;2022-09-09T01:31:51;100230.66;;;23.90;53.69
70240;BME280;57629;52.256;10.414;2022-09-09T01:32:54;100240.31;;;23.91;53.71
70240;BME280;57629;52.256;10.414;2022-09-09T01:33:55;100232.53;;;23.89;53.49
70240;BME280;57629;52.256;10.414;2022-09-09T01:34:56;100230.66;;;23.90;53.88
70240;BME280;57629;52.256;10.414;2022-09-09T01:35:59;100222.59;;;23.90;53.50
70240;BME280;57629;52.256;10.414;2022-09-09T01:37:04;100230.66;;;23.90;53.60
70240;BME280;57629;52.256;10.414;2022-09-09T01:38:06;100227.97;;;23.90;53.70
70240;BME280;57629;52.256;10.414;2022-09-09T01:39:06;100221.81;;;23.89;53.62
70240;BME280;57629;52.256;10.414;2022-09-09T01:40:07;100224.50;;;23.89;53.48
70240;BME280;57629;52.256;10.414;2022-09-09T01:41:08;100224.50;;;23.89;53.75
70240;BME280;57629;52.256;10.414;2022-09-09T01:42:13;100230.66;;;23.90;53.69
70240;BME280;57629;52.256;10.414;2022-09-09T01:43:15;100227.97;;;23.90;53.33
70240;BME280;57629;52.256;10.414;2022-09-09T01:44:17;100233.31;;;23.90;53.28
70240;BME280;57629;52.256;10.414;2022-09-09T01:45:17;100225.59;;;23.88;53.41
70240;BME280;57629;52.256;10.414;2022-09-09T01:46:21;100228.78;;;23.90;53.54
70240;BME280;57629;52.256;10.414;2022-09-09T01:47:22;100218.34;;;23.89;53.57
70240;BME280;57629;52.256;10.414;2022-09-09T01:48:23;100219.13;;;23.89;53.33
70240;BME280;57629;52.256;10.414;2022-09-09T01:49:25;100223.69;;;23.89;53.42
70240;BME280;57629;52.256;10.414;2022-09-09T01:50:26;100218.34;;;23.89;53.62
70240;BME280;57629;52.256;10.414;2022-09-09T01:51:26;100217.53;;;23.88;53.77
70240;BME280;57629;52.256;10.414;2022-09-09T01:52:27;100212.97;;;23.89;53.57
70240;BME280;57629;52.256;10.414;2022-09-09T01:53:28;100213.25;;;23.87;53.56
70240;BME280;57629;52.256;10.414;2022-09-09T01:54:31;100212.19;;;23.88;53.28
70240;BME280;57629;52.256;10.414;2022-09-09T01:55:38;100214.06;;;23.88;53.82
70240;BME280;57629;52.256;10.414;2022-09-09T01:56:44;100220.22;;;23.88;53.50
70240;BME280;57629;52.256;10.414;2022-09-09T01:57:56;100221.28;;;23.87;53.62
70240;BME280;57629;52.256;10.414;2022-09-09T01:59:11;100216.75;;;23.88;53.68
70240;BME280;57629;52.256;10.414;2022-09-09T02:00:15;100229.31;;;23.87;53.43
70240;BME280;57629;52.256;10.414;2022-09-09T02:01:21;100219.69;;;23.86;53.62
70240;BME280;57629;52.256;10.414;2022-09-09T02:02:27;100221.28;;;23.87;53.21
70240;BME280;57629;52.256;10.414;2022-09-09T02:03:32;100225.84;;;23.86;53.30
70240;BME280;57629;52.256;10.414;2022-09-09T02:04:37;100219.69;;;23.86;52.95
70240;BME280;57629;52.256;10.414;2022-09-09T02:05:41;100225.06;;;23.86;53.66
70240;BME280;57629;52.256;10.414;2022-09-09T02:06:43;100216.22;;;23.85;53.48
70240;BME280;57629;52.256;10.414;2022-09-09T02:07:48;100219.69;;;23.86;53.17
70240;BME280;57629;52.256;10.414;2022-09-09T02:08:50;100215.44;;;23.85;53.49
70240;BME280;57629;52.256;10.414;2022-09-09T02:09:58;100220.50;;;23.86;53.23
70240;BME280;57629;52.256;10.414;2022-09-09T02:11:06;100221.59;;;23.85;53.19
70240;BME280;57629;52.256;10.414;2022-09-09T02:12:13;100228.84;;;23.85;53.41
70240;BME280;57629;52.256;10.414;2022-09-09T02:13:18;100228.84;;;23.85;53.25
70240;BME280;57629;52.256;10.414;2022-09-09T02:14:23;100226.16;;;23.85;53.58
70240;BME280;57629;52.256;10.414;2022-09-09T02:15:30;100222.63;;;23.84;53.46
70240;BME280;57629;52.256;10.414;2022-09-09T02:16:38;100225.31;;;23.84;53.34
70240;BME280;57629;52.256;10.414;2022-09-09T02:17:40;100228.00;;;23.84;53.19
70240;BME280;57629;52.256;10.414;2022-09-09T02:18:46;100222.63;;;23.84;53.14
70240;BME280;57629;52.256;10.414;2022-09-09T02:19:50;100221.06;;;23.83;53.27
70240;BME280;57629;52.256;10.414;2022-09-09T02:20:52;100223.72;;;23.83;53.17
70240;BME280;57629;52.256;10.414;2022-09-09T02:21:55;100228.00;;;23.84;53.46
70240;BME280;57629;52.256;10.414;2022-09-09T02:22:57;100217.56;;;23.83;53.06
70240;BME280;57629;52.256;10.414;2022-09-09T02:23:59;100222.13;;;23.82;53.34
70240;BME280;57629;52.256;10.414;2022-09-09T02:25:02;100226.41;;;23.83;53.24
70240;BME280;57629;52.256;10.414;2022-09-09T02:26:04;100221.06;;;23.83;53.27
70240;BME280;57629;52.256;10.414;2022-09-09T02:27:06;100222.94;;;23.83;53.40
70240;BME280;57629;52.256;10.414;2022-09-09T02:28:09;100210.59;;;23.82;53.16
70240;BME280;57629;52.256;10.414;2022-09-09T02:29:22;100214.06;;;23.82;53.19
70240;BME280;57629;52.256;10.414;2022-09-09T02:30:25;100215.69;;;23.83;53.39
70240;BME280;57629;52.256;10.414;2022-09-09T02:31:28;100216.75;;;23.82;52.90
70240;BME280;57629;52.256;10.414;2022-09-09T02:32:32;100214.06;;;23.82;53.04
70240;BME280;57629;52.256;10.414;2022-09-09T02:33:37;100216.75;;;23.82;53.29
70240;BME280;57629;52.256;10.414;2022-09-09T02:34:42;100215.16;;;23.81;53.15
70240;BME280;57629;52.256;10.414;2022-09-09T02:35:45;100211.69;;;23.81;53.12
70240;BME280;57629;52.256;10.414;2022-09-09T02:36:47;100216.75;;;23.82;52.92
70240;BME280;57629;52.256;10.414;2022-09-09T02:37:50;100211.69;;;23.81;52.79
70240;BME280;57629;52.256;10.414;2022-09-09T02:38:52;100208.22;;;23.80;53.05
70240;BME280;57629;52.256;10.414;2022-09-09T02:39:52;100219.72;;;23.81;53.07
70240;BME280;57629;52.256;10.414;2022-09-09T02:40:53;100213.56;;;23.80;53.18
70240;BME280;57629;52.256;10.414;2022-09-09T02:41:54;100212.47;;;23.81;53.12
70240;BME280;57629;52.256;10.414;2022-09-09T02:42:55;100210.91;;;23.80;53.17
70240;BME280;57629;52.256;10.414;2022-09-09T02:43:55;100217.06;;;23.81;53.10
70240;BME280;57629;52.256;10.414;2022-09-09T02:44:58;100205.53;;;23.80;53.09
70240;BME280;57629;52.256;10.414;2022-09-09T02:46:04;100219.44;;;23.82;53.01
70240;BME280;57629;52.256;10.414;2022-09-09T02:47:20;100215.97;;;23.82;53.04
70240;BME280;57629;52.256;10.414;2022-09-09T02:48:30;100218.63;;;23.82;52.80
70240;BME280;57629;52.256;10.414;2022-09-09T02:49:39;100207.91;;;23.82;52.89
70240;BME280;57629;52.256;10.414;2022-09-09T02:50:48;100215.97;;;23.82;53.10
70240;BME280;57629;52.256;10.414;2022-09-09T02:51:58;100214.06;;;23.82;52.82
70240;BME280;57629;52.256;10.414;2022-09-09T02:53:07;100208.72;;;23.82;52.88
70240;BME280;57629;52.256;10.414;2022-09-09T02:54:15;100215.97;;;23.82;52.88
70240;BME280;57629;52.256;10.414;2022-09-09T02:55:23;100211.38;;;23.82;53.04
70240;BME280;57629;52.256;10.414;2022-09-09T02:56:27;100214.06;;;23.82;52.83
70240;BME280;57629;52.256;10.414;2022-09-09T02:57:31;100208.72;;;23.82;53.04
70240;BME280;57629;52.256;10.414;2022-09-09T02:58:33;100207.91;;;23.82;52.98
70240;BME280;57629;52.256;10.414;2022-09-09T02:59:34;100212.22;;;23.83;52.89
70240;BME280;57629;52.256;10.414;2022-09-09T03:00:36;100220.25;;;23.83;52.83
70240;BME280;57629;52.256;10.414;2022-09-09T03:01:38;100204.44;;;23.81;53.16
70240;BME280;57629;52.256;10.414;2022-09-09T03:02:38;100206.84;;;23.83;52.93
70240;BME280;57629;52.256;10.414;2022-09-09T03:03:39;100215.16;;;23.81;52.89
70240;BME280;57629;52.256;10.414;2022-09-09T03:04:40;100208.72;;;23.82;53.05
70240;BME280;57629;52.256;10.414;2022-09-09T03:05:41;100208.72;;;23.82;52.95
70240;BME280;57629;52.256;10.414;2022-09-09T03:06:42;100207.91;;;23.82;52.81
70240;BME280;57629;52.256;10.414;2022-09-09T03:07:42;100203.34;;;23.82;52.82
70240;BME280;57629;52.256;10.414;2022-09-09T03:08:43;100205.22;;;23.82;52.73
70240;BME280;57629;52.256;10.414;2022-09-09T03:09:44;100204.16;;;23.83;52.73
70240;BME280;57629;52.256;10.414;2022-09-09T03:10:45;100202.28;;;23.83;52.68
70240;BME280;57629;52.256;10.414;2022-09-09T03:11:45;100195.31;;;23.82;52.85
70240;BME280;57629;52.256;10.414;2022-09-09T03:12:46;100200.66;;;23.82;53.00
70240;BME280;57629;52.256;10.414;2022-09-09T03:13:46;100205.22;;;23.82;52.98
70240;BME280;57629;52.256;10.414;2022-09-09T03:14:47;100206.03;;;23.82;52.85
70240;BME280;57629;52.256;10.414;2022-09-09T03:15:49;100205.22;;;23.82;53.07
70240;BME280;57629;52.256;10.414;2022-09-09T03:16:50;100210.59;;;23.82;53.01
70240;BME280;57629;52.256;10.414;2022-09-09T03:17:51;100214.91;;;23.83;53.20
70240;BME280;57629;52.256;10.414;2022-09-09T03:18:52;100212.22;;;23.83;52.99
70240;BME280;57629;52.256;10.414;2022-09-09T03:19:52;100214.06;;;23.82;52.78
70240;BME280;57629;52.256;10.414;2022-09-09T03:20:53;100205.22;;;23.82;53.02
70240;BME280;57629;52.256;10.414;2022-09-09T03:21:54;100217.84;;;23.81;53.11
70240;BME280;57629;52.256;10.414;2022-09-09T03:22:55;100225.88;;;23.81;52.82
70240;BME280;57629;52.256;10.414;2022-09-09T03:23:56;100212.47;;;23.81;52.92
70240;BME280;57629;52.256;10.414;2022-09-09T03:24:57;100213.56;;;23.80;52.73
70240;BME280;57629;52.256;10.414;2022-09-09T03:25:58;100211.69;;;23.81;52.95
70240;BME280;57629;52.256;10.414;2022-09-09T03:26:58;100217.06;;;23.81;53.04
70240;BME280;57629;52.256;10.414;2022-09-09T03:27:59;100206.31;;;23.81;52.88
70240;BME280;57629;52.256;10.414;2022-09-09T03:28:59;100213.56;;;23.80;52.75
70240;BME280;57629;52.256;10.414;2022-09-09T03:30:00;100213.56;;;23.80;53.03
70240;BME280;57629;52.256;10.414;2022-09-09T03:31:04;100215.16;;;23.81;52.96
70240;BME280;57629;52.256;10.414;2022-09-09T03:32:05;100217.31;;;23.79;52.89
70240;BME280;57629;52.256;10.414;2022-09-09T03:33:05;100220.00;;;23.79;52.98
70240;BME280;57629;52.256;10.414;2022-09-09T03:34:06;100220.00;;;23.79;52.88
70240;BME280;57629;52.256;10.414;2022-09-09T03:35:07;100222.69;;;23.79;53.03
70240;BME280;57629;52.256;10.414;2022-09-09T03:36:08;100221.09;;;23.78;53.02
70240;BME280;57629;52.256;10.414;2022-09-09T03:37:09;100223.78;;;23.78;52.99
70240;BME280;57629;52.256;10.414;2022-09-09T03:38:09;100222.97;;;23.78;52.88
70240;BME280;57629;52.256;10.414;2022-09-09T03:39:10;100218.41;;;23.78;52.84
70240;BME280;57629;52.256;10.414;2022-09-09T03:40:11;100218.41;;;23.78;52.61
70240;BME280;57629;52.256;10.414;2022-09-09T03:41:12;100221.88;;;23.79;52.84
70240;BME280;57629;52.256;10.414;2022-09-09T03:42:13;100220.28;;;23.78;52.62
70240;BME280;57629;52.256;10.414;2022-09-09T03:43:14;100216.78;;;23.77;52.87
70240;BME280;57629;52.256;10.414;2022-09-09T03:44:15;100221.09;;;23.78;52.81
70240;BME280;57629;52.256;10.414;2022-09-09T03:45:15;100226.44;;;23.78;52.63
70240;BME280;57629;52.256;10.414;2022-09-09T03:46:18;100223.78;;;23.78;52.92
70240;BME280;57629;52.256;10.414;2022-09-09T03:47:19;100217.63;;;23.78;52.64
70240;BME280;57629;52.256;10.414;2022-09-09T03:48:20;100222.16;;;23.77;52.87
70240;BME280;57629;52.256;10.414;2022-09-09T03:49:21;100222.97;;;23.78;52.65
70240;BME280;57629;52.256;10.414;2022-09-09T03:50:21;100222.16;;;23.77;52.97
70240;BME280;57629;52.256;10.414;2022-09-09T03:51:22;100222.16;;;23.77;52.63
70240;BME280;57629;52.256;10.414;2022-09-09T03:52:23;100214.09;;;23.77;52.78
70240;BME280;57629;52.256;10.414;2022-09-09T03:53:24;100214.09;;;23.77;52.64
70240;BME280;57629;52.256;10.414;2022-09-09T03:54:25;100219.47;;;23.77;52.65
70240;BME280;57629;52.256;10.414;2022-09-09T03:55:26;100215.19;;;23.76;52.84
70240;BME280;57629;52.256;10.414;2022-09-09T03:56:26;100218.69;;;23.77;52.64
70240;BME280;57629;52.256;10.414;2022-09-09T03:57:27;100212.53;;;23.76;52.55
70240;BME280;57629;52.256;10.414;2022-09-09T03:58:28;100217.09;;;23.76;52.62
70240;BME280;57629;52.256;10.414;2022-09-09T03:59:29;100209.03;;;23.76;52.97
70240;BME280;57629;52.256;10.414;2022-09-09T04:00:29;100215.19;;;23.76;52.83
70240;BME280;57629;52.256;10.414;2022-09-09T04:01:31;100211.72;;;23.76;52.91
70240;BME280;57629;52.256;10.414;2022-09-09T04:02:32;100213.63;;;23.75;52.83
70240;BME280;57629;52.256;10.414;2022-09-09T04:03:33;100206.38;;;23.76;52.72
70240;BME280;57629;52.256;10.414;2022-09-09T04:04:33;100217.88;;;23.76;52.46
70240;BME280;57629;52.256;10.414;2022-09-09T04:05:34;100209.84;;;23.76;52.84
70240;BME280;57629;52.256;10.414;2022-09-09T04:06:34;100215.19;;;23.76;52.92
70240;BME280;57629;52.256;10.414;2022-09-09T04:07:35;100210.94;;;23.75;52.67
70240;BME280;57629;52.256;10.414;2022-09-09T04:08:36;100205.56;;;23.75;52.69
70240;BME280;57629;52.256;10.414;2022-09-09T04:09:36;100212.78;;;23.75;52.66
70240;BME280;57629;52.256;10.414;2022-09-09T04:10:37;100215.19;;;23.76;52.92
70240;BME280;57629;52.256;10.414;2022-09-09T04:11:38;100209.03;;;23.76;52.72
70240;BME280;57629;52.256;10.414;2022-09-09T04:12:38;100208.25;;;23.75;52.58
70240;BME280;57629;52.256;10.414;2022-09-09T04:13:39;100211.72;;;23.76;52.87
70240;BME280;57629;52.256;10.414;2022-09-09T04:14:39;100214.41;;;23.76;52.78
70240;BME280;57629;52.256;10.414;2022-09-09T04:15:40;100208.25;;;23.75;52.66
70240;BME280;57629;52.256;10.414;2022-09-09T04:16:42;100214.41;;;23.76;52.86
70240;BME280;57629;52.256;10.414;2022-09-09T04:17:43;100211.72;;;23.76;52.87
70240;BME280;57629;52.256;10.414;2022-09-09T04:18:44;100212.53;;;23.76;52.70
70240;BME280;57629;52.256;10.414;2022-09-09T04:19:44;100216.00;;;23.77;52.80
70240;BME280;57629;52.256;10.414;2022-09-09T04:20:46;100209.84;;;23.76;52.57
70240;BME280;57629;52.256;10.414;2022-09-09T04:21:46;100216.00;;;23.77;52.69
70240;BME280;57629;52.256;10.414;2022-09-09T04:22:47;100219.47;;;23.77;52.75
70240;BME280;57629;52.256;10.414;2022-09-09T04:23:48;100221.34;;;23.77;52.79
70240;BME280;57629;52.256;10.414;2022-09-09T04:24:48;100216.78;;;23.77;52.65
70240;BME280;57629;52.256;10.414;2022-09-09T04:25:51;100213.63;;;23.75;52.55
70240;BME280;57629;52.256;10.414;2022-09-09T04:26:52;100213.31;;;23.77;52.59
70240;BME280;57629;52.256;10.414;2022-09-09T04:27:53;100216.78;;;23.77;52.69
70240;BME280;57629;52.256;10.414;2022-09-09T04:28:54;100210.63;;;23.77;52.73
70240;BME280;57629;52.256;10.414;2022-09-09T04:29:55;100214.09;;;23.77;52.57
70240;BME280;57629;52.256;10.414;2022-09-09T04:30:55;100225.66;;;23.78;52.68
70240;BME280;57629;52.256;10.414;2022-09-09T04:31:58;100218.69;;;23.77;52.67
70240;BME280;57629;52.256;10.414;2022-09-09T04:32:58;100219.47;;;23.77;52.76
70240;BME280;57629;52.256;10.414;2022-09-09T04:33:59;100214.09;;;23.77;52.69
70240;BME280;57629;52.256;10.414;2022-09-09T04:34:59;100218.69;;;23.77;53.07
70240;BME280;57629;52.256;10.414;2022-09-09T04:36:00;100225.66;;;23.78;52.91
70240;BME280;57629;52.256;10.414;2022-09-09T04:37:01;100223.78;;;23.78;52.91
70240;BME280;57629;52.256;10.414;2022-09-09T04:38:02;100216.00;;;23.77;52.75
70240;BME280;57629;52.256;10.414;2022-09-09T04:39:03;100225.66;;;23.78;52.96
70240;BME280;57629;52.256;10.414;2022-09-09T04:40:04;100224.03;;;23.77;52.67
70240;BME280;57629;52.256;10.414;2022-09-09T04:41:05;100222.97;;;23.78;52.77
70240;BME280;57629;52.256;10.414;2022-09-09T04:42:06;100216.00;;;23.77;53.06
70240;BME280;57629;52.256;10.414;2022-09-09T04:43:08;100224.84;;;23.77;52.72
70240;BME280;57629;52.256;10.414;2022-09-09T04:44:08;100222.16;;;23.77;52.98
70240;BME280;57629;52.256;10.414;2022-09-09T04:45:09;100220.56;;;23.76;53.07
70240;BME280;57629;52.256;10.414;2022-09-09T04:46:10;100218.69;;;23.77;52.65
70240;BME280;57629;52.256;10.414;2022-09-09T04:47:12;100221.34;;;23.77;52.82
70240;BME280;57629;52.256;10.414;2022-09-09T04:48:13;100222.44;;;23.76;52.80
70240;BME280;57629;52.256;10.414;2022-09-09T04:49:13;100224.34;;;23.75;52.51
70240;BME280;57629;52.256;10.414;2022-09-09T04:50:14;100225.13;;;23.76;52.54
70240;BME280;57629;52.256;10.414;2022-09-09T04:51:15;100224.34;;;23.75;52.78
70240;BME280;57629;52.256;10.414;2022-09-09T04:52:16;100228.59;;;23.76;52.85
70240;BME280;57629;52.256;10.414;2022-09-09T04:53:16;100230.50;;;23.76;52.90
70240;BME280;57629;52.256;10.414;2022-09-09T04:54:17;100228.59;;;23.76;52.76
70240;BME280;57629;52.256;10.414;2022-09-09T04:55:18;100225.13;;;23.76;52.93
70240;BME280;57629;52.256;10.414;2022-09-09T04:56:18;100229.69;;;23.75;52.86
70240;BME280;57629;52.256;10.414;2022-09-09T04:57:19;100231.28;;;23.76;52.69
70240;BME280;57629;52.256;10.414;2022-09-09T04:58:20;100227.03;;;23.75;52.96
70240;BME280;57629;52.256;10.414;2022-09-09T04:59:21;100226.19;;;23.75;52.72
70240;BME280;57629;52.256;10.414;2022-09-09T05:00:22;100230.50;;;23.76;52.71
70240;BME280;57629;52.256;10.414;2022-09-09T05:01:23;100226.19;;;23.75;52.90
70240;BME280;57629;52.256;10.414;2022-09-09T05:02:25;100224.34;;;23.75;52.67
70240;BME280;57629;52.256;10.414;2022-09-09T05:03:26;100223.81;;;23.73;52.85
70240;BME280;57629;52.256;10.414;2022-09-09T05:04:26;100228.09;;;23.74;52.73
70240;BME280;57629;52.256;10.414;2022-09-09T05:05:27;100229.97;;;23.74;52.73
70240;BME280;57629;52.256;10.414;2022-09-09T05:06:27;100234.25;;;23.75;52.73
70240;BME280;57629;52.256;10.414;2022-09-09T05:07:28;100227.28;;;23.74;52.52
70240;BME280;57629;52.256;10.414;2022-09-09T05:08:29;100226.50;;;23.73;52.96
70240;BME280;57629;52.256;10.414;2022-09-09T05:09:29;100228.09;;;23.74;52.94
70240;BME280;57629;52.256;10.414;2022-09-09T05:10:30;100233.44;;;23.74;52.81
70240;BME280;57629;52.256;10.414;2022-09-09T05:11:32;100226.50;;;23.73;52.59
70240;BME280;57629;52.256;10.414;2022-09-09T05:12:33;100232.66;;;23.74;52.86
70240;BME280;57629;52.256;10.414;2022-09-09T05:13:33;100229.97;;;23.74;52.65
70240;BME280;57629;52.256;10.414;2022-09-09T05:14:34;100235.31;;;23.74;52.58
70240;BME280;57629;52.256;10.414;2022-09-09T05:15:34;100228.38;;;23.73;52.75
70240;BME280;57629;52.256;10.414;2022-09-09T05:16:35;100232.66;;;23.74;52.59
70240;BME280;57629;52.256;10.414;2022-09-09T05:17:37;100238.00;;;23.74;52.60
70240;BME280;57629;52.256;10.414;2022-09-09T05:18:38;100242.56;;;23.73;52.82
70240;BME280;57629;52.256;10.414;2022-09-09T05:19:39;100224.03;;;23.72;52.94
70240;BME280;57629;52.256;10.414;2022-09-09T05:20:39;100230.19;;;23.72;52.47
70240;BME280;57629;52.256;10.414;2022-09-09T05:21:40;100231.84;;;23.73;52.70
70240;BME280;57629;52.256;10.414;2022-09-09T05:22:40;100232.88;;;23.72;52.65
70240;BME280;57629;52.256;10.414;2022-09-09T05:23:41;100230.19;;;23.72;52.67
70240;BME280;57629;52.256;10.414;2022-09-09T05:24:42;100229.41;;;23.72;52.88
70240;BME280;57629;52.256;10.414;2022-09-09T05:25:42;100236.41;;;23.73;52.57
70240;BME280;57629;52.256;10.414;2022-09-09T05:26:43;100232.88;;;23.72;52.90
70240;BME280;57629;52.256;10.414;2022-09-09T05:27:44;100238.25;;;23.72;52.79
70240;BME280;57629;52.256;10.414;2022-09-09T05:28:45;100236.41;;;23.73;52.95